Time;durP1;ratioP1;P1;durP2;ratioP2;P2;SDS_P1;SDS_P2;PMS_P1;PMS_P2;Temp;Humidity;BMP_temperature;BMP_pressure;BME280_temperature;BME280_humidity;BME280_pressure;Samples;Min_cycle;Max_cycle;Signal;HPM_P1;HPM_P2
2021/10/03 00:00:14;;;;;;;;;4.25;4.00;;;;;17.90;68.02;99182.31;4959256;28;45250;-54
2021/10/03 00:02:41;;;;;;;;;3.50;3.50;;;;;17.93;68.33;99192.72;4959332;28;45403;-53
2021/10/03 00:05:09;;;;;;;;;3.00;3.00;;;;;17.92;68.08;99188.34;4959987;28;45450;-52
2021/10/03 00:07:36;;;;;;;;;3.75;3.00;;;;;17.94;68.20;99194.44;4960411;28;46328;-54
2021/10/03 00:10:03;;;;;;;;;3.00;3.00;;;;;17.95;68.29;99187.31;4959250;28;45282;-54
2021/10/03 00:12:28;;;;;;;;;3.25;3.25;;;;;17.94;68.25;99180.31;4960709;28;45332;-53
2021/10/03 00:14:54;;;;;;;;;2.75;2.75;;;;;17.96;68.09;99173.06;4960549;28;45183;-52
2021/10/03 00:17:19;;;;;;;;;4.00;3.00;;;;;17.98;68.14;99164.03;4959404;28;46975;-54
2021/10/03 00:19:45;;;;;;;;;3.25;3.25;;;;;18.01;68.03;99165.63;4979175;28;45146;-54
2021/10/03 00:22:11;;;;;;;;;3.00;3.00;;;;;18.02;68.08;99162.88;4980004;28;45266;-54
2021/10/03 00:24:36;;;;;;;;;5.75;3.50;;;;;18.05;68.26;99158.28;4979965;28;45371;-54
2021/10/03 00:27:02;;;;;;;;;3.25;3.25;;;;;18.07;67.62;99156.38;4979901;28;45238;-54
2021/10/03 00:29:28;;;;;;;;;5.25;4.75;;;;;18.08;68.25;99158.94;4978609;28;45248;-53
2021/10/03 00:31:53;;;;;;;;;5.00;5.00;;;;;18.11;68.25;99155.19;4980247;28;45314;-54
2021/10/03 00:34:19;;;;;;;;;3.00;3.00;;;;;18.11;68.06;99148.09;4979664;28;45490;-54
2021/10/03 00:36:44;;;;;;;;;5.00;5.00;;;;;18.12;67.99;99143.63;4979644;28;46284;-53
2021/10/03 00:39:10;;;;;;;;;5.00;4.00;;;;;18.12;67.93;99136.47;4979855;28;45250;-55
2021/10/03 00:41:36;;;;;;;;;5.50;4.75;;;;;18.12;68.02;99135.66;4979194;28;45411;-54
2021/10/03 00:44:01;;;;;;;;;3.75;3.00;;;;;18.15;67.66;99146.03;4981586;28;45365;-55
2021/10/03 00:46:26;;;;;;;;;5.00;3.25;;;;;18.17;67.83;99137.00;4983123;28;46302;-55
2021/10/03 00:48:52;;;;;;;;;7.50;4.75;;;;;18.15;67.65;99124.78;4983124;28;45346;-54
2021/10/03 00:51:18;;;;;;;;;5.00;3.00;;;;;18.17;67.33;99115.72;4998230;28;45444;-54
2021/10/03 00:53:43;;;;;;;;;6.00;5.00;;;;;18.17;67.29;99138.81;4982964;28;45310;-56
2021/10/03 00:56:12;;;;;;;;;7.00;5.00;;;;;18.19;67.26;99129.78;4978461;28;47352;-55
2021/10/03 00:58:39;;;;;;;;;4.25;4.00;;;;;18.21;67.45;99131.47;4963282;28;45243;-54
2021/10/03 01:01:04;;;;;;;;;4.00;4.00;;;;;18.21;67.41;99116.38;4978582;28;45355;-55
2021/10/03 01:03:30;;;;;;;;;4.25;4.00;;;;;18.19;67.48;99123.63;4963011;28;45347;-54
2021/10/03 01:05:55;;;;;;;;;7.75;4.00;;;;;18.20;67.69;99120.00;4963110;28;47019;-53
2021/10/03 01:08:21;;;;;;;;;6.25;6.25;;;;;18.22;67.45;99122.56;4962148;28;45342;-49
2021/10/03 01:10:46;;;;;;;;;6.00;6.00;;;;;18.23;67.34;99118.94;4963559;28;45429;-53
2021/10/03 01:13:12;;;;;;;;;3.00;3.00;;;;;18.19;67.52;99116.47;4963104;28;45390;-55
2021/10/03 01:15:42;;;;;;;;;6.00;5.50;;;;;18.20;67.22;99117.34;4963105;28;46581;-54
2021/10/03 01:18:09;;;;;;;;;5.00;5.00;;;;;18.20;67.54;99101.41;4968726;28;45297;-53
2021/10/03 01:20:35;;;;;;;;;7.25;5.75;;;;;18.17;67.38;99096.28;4982544;28;45318;-53
2021/10/03 01:23:03;;;;;;;;;5.50;5.25;;;;;18.17;67.39;99094.47;4982295;28;45294;-54
2021/10/03 01:25:34;;;;;;;;;4.25;4.25;;;;;18.17;67.57;99088.31;4981087;28;46356;-52
2021/10/03 01:28:01;;;;;;;;;7.25;5.75;;;;;18.16;67.31;99090.13;4982102;28;45313;-55
2021/10/03 01:30:27;;;;;;;;;7.00;6.50;;;;;18.17;67.29;99069.69;4981627;28;45403;-54
2021/10/03 01:32:53;;;;;;;;;5.50;4.00;;;;;18.16;67.51;99086.59;4982284;28;45491;-52
2021/10/03 01:35:19;;;;;;;;;5.75;5.75;;;;;18.16;67.13;99073.31;4981884;28;45373;-54
2021/10/03 01:37:45;;;;;;;;;5.25;5.25;;;;;18.14;67.46;99068.13;4982336;28;45163;-54
2021/10/03 01:40:11;;;;;;;;;7.50;6.25;;;;;18.12;67.25;99064.72;4982360;28;45172;-53
2021/10/03 01:42:37;;;;;;;;;5.25;5.25;;;;;18.10;67.23;99056.03;4981801;28;45429;-53
2021/10/03 01:45:07;;;;;;;;;6.00;6.00;;;;;18.10;67.48;99056.03;4982111;28;46294;-54
2021/10/03 01:47:32;;;;;;;;;5.25;5.00;;;;;18.08;67.41;99055.28;4981962;28;45495;-51
2021/10/03 01:49:57;;;;;;;;;6.75;5.50;;;;;18.08;67.53;99049.13;4982045;28;45286;-51
2021/10/03 01:52:23;;;;;;;;;5.00;5.00;;;;;18.08;67.12;99039.31;4982134;28;45294;-51
2021/10/03 01:54:48;;;;;;;;;3.75;3.75;;;;;18.05;67.24;99026.28;4980810;28;45335;-54
2021/10/03 01:57:14;;;;;;;;;5.25;5.25;;;;;18.04;67.29;99040.50;4981978;28;45254;-50
2021/10/03 01:59:40;;;;;;;;;5.25;5.25;;;;;18.06;67.52;99038.56;4980911;28;45292;-52
2021/10/03 02:02:06;;;;;;;;;2.00;2.00;;;;;18.06;67.46;99048.38;4982008;28;45183;-53
2021/10/03 02:04:32;;;;;;;;;6.50;6.25;;;;;18.05;67.35;99036.03;4981832;28;46652;-53
2021/10/03 02:07:00;;;;;;;;;5.00;5.00;;;;;18.05;67.63;99034.25;4981582;28;45234;-53
2021/10/03 02:09:27;;;;;;;;;6.50;6.50;;;;;18.03;67.71;99029.00;4982162;28;45335;-52
2021/10/03 02:11:58;;;;;;;;;8.75;6.25;;;;;18.02;67.72;99018.50;4981574;28;45334;-53
2021/10/03 02:14:30;;;;;;;;;10.00;6.00;;;;;18.02;67.49;99016.72;4981685;28;46565;-54
2021/10/03 02:16:59;;;;;;;;;7.25;7.00;;;;;18.01;67.65;99019.47;4981699;28;45277;-51
2021/10/03 02:19:27;;;;;;;;;4.75;4.75;;;;;17.98;67.62;99003.75;4965677;28;45585;-52
2021/10/03 02:21:53;;;;;;;;;7.00;7.00;;;;;17.97;67.50;99002.88;4961658;28;45330;-52
2021/10/03 02:24:19;;;;;;;;;7.25;6.00;;;;;17.99;67.66;99000.13;4977105;28;47215;-54
2021/10/03 02:26:45;;;;;;;;;4.75;4.75;;;;;18.01;67.32;99008.81;4962097;28;45281;-54
2021/10/03 02:29:10;;;;;;;;;6.25;5.50;;;;;17.98;67.56;98998.44;4962106;28;45239;-53
2021/10/03 02:31:36;;;;;;;;;5.75;5.75;;;;;17.98;67.25;98985.97;4962004;28;45598;-54
2021/10/03 02:34:01;;;;;;;;;5.00;5.00;;;;;17.97;67.12;98986.94;4961837;28;46230;-53
2021/10/03 02:36:27;;;;;;;;;6.50;6.00;;;;;17.98;67.03;98971.84;4961638;28;45323;-53
2021/10/03 02:38:53;;;;;;;;;7.00;5.75;;;;;17.96;67.00;98981.75;4962154;28;45180;-53
2021/10/03 02:41:19;;;;;;;;;6.50;5.00;;;;;17.94;67.13;98979.19;4976125;28;45484;-54
2021/10/03 02:43:50;;;;;;;;;6.25;5.75;;;;;17.95;67.38;98978.25;4980995;28;46254;-51
2021/10/03 02:46:17;;;;;;;;;5.50;5.50;;;;;17.93;67.26;98974.81;4981163;28;45247;-53
2021/10/03 02:48:49;;;;;;;;;8.00;8.00;;;;;17.93;67.15;98966.84;4981355;28;45227;-51
2021/10/03 02:51:15;;;;;;;;;4.25;4.25;;;;;17.92;67.07;98969.63;4981124;28;45423;-52
2021/10/03 02:53:40;;;;;;;;;7.25;6.00;;;;;17.92;67.36;98969.63;4980960;28;45444;-52
2021/10/03 02:56:06;;;;;;;;;4.25;4.25;;;;;17.91;66.92;98965.25;4981230;28;45245;-54
2021/10/03 02:58:31;;;;;;;;;5.75;5.00;;;;;17.90;66.84;98947.63;4981075;28;45164;-54
2021/10/03 03:00:57;;;;;;;;;6.25;6.00;;;;;17.87;67.22;98944.25;4981179;28;45157;-54
2021/10/03 03:03:22;;;;;;;;;5.00;5.00;;;;;17.86;66.97;98934.56;4979674;28;45992;-54
2021/10/03 03:05:48;;;;;;;;;6.75;6.00;;;;;17.83;67.02;98948.06;4980402;28;45248;-52
2021/10/03 03:08:14;;;;;;;;;6.25;5.25;;;;;17.82;67.03;98938.41;4981230;28;45700;-53
2021/10/03 03:10:39;;;;;;;;;8.00;7.25;;;;;17.82;66.98;98940.22;4980970;28;45429;-52
2021/10/03 03:13:04;;;;;;;;;7.00;6.00;;;;;17.79;66.91;98943.09;4980804;28;46125;-50
2021/10/03 03:15:30;;;;;;;;;7.75;7.75;;;;;17.75;66.27;98923.00;4980970;28;45286;-50
2021/10/03 03:17:55;;;;;;;;;8.75;6.00;;;;;17.74;66.49;98935.47;4979250;28;45422;-52
2021/10/03 03:20:21;;;;;;;;;5.25;4.50;;;;;17.73;67.21;98922.28;4961152;28;45322;-52
2021/10/03 03:22:47;;;;;;;;;10.25;9.25;;;;;17.75;66.88;98915.91;4961101;28;45378;-51
2021/10/03 03:25:14;;;;;;;;;8.00;8.00;;;;;17.70;66.76;98921.53;4960054;28;45353;-54
2021/10/03 03:27:40;;;;;;;;;7.25;6.75;;;;;17.70;66.25;98904.78;4959981;28;45292;-54
2021/10/03 03:30:08;;;;;;;;;4.50;4.00;;;;;17.67;66.76;98902.31;4961243;28;45234;-53
2021/10/03 03:32:33;;;;;;;;;7.50;7.50;;;;;17.67;66.84;98902.31;4960908;28;46405;-53
2021/10/03 03:34:59;;;;;;;;;5.75;5.00;;;;;17.65;66.44;98912.22;4960731;28;45647;-53
2021/10/03 03:37:24;;;;;;;;;8.50;8.50;;;;;17.63;66.48;98898.19;4961286;28;45421;-52
2021/10/03 03:39:49;;;;;;;;;6.25;6.25;;;;;17.61;66.74;98897.47;4962246;28;45505;-52
2021/10/03 03:42:15;;;;;;;;;8.25;7.00;;;;;17.61;66.85;98900.09;4979944;28;46297;-51
2021/10/03 03:44:40;;;;;;;;;7.25;5.75;;;;;17.57;66.74;98896.81;4980539;28;45342;-52
2021/10/03 03:47:06;;;;;;;;;6.75;6.75;;;;;17.58;66.12;98895.03;4980476;28;45402;-53
2021/10/03 03:49:31;;;;;;;;;5.75;5.75;;;;;17.57;66.60;98893.34;4980069;28;45357;-51
2021/10/03 03:51:57;;;;;;;;;7.00;6.75;;;;;17.56;66.75;98892.50;4975603;28;46984;-52
2021/10/03 03:54:23;;;;;;;;;8.00;6.75;;;;;17.55;66.96;98883.66;4960875;28;45415;-51
2021/10/03 03:56:48;;;;;;;;;7.75;5.00;;;;;17.52;66.62;98881.25;4960954;28;45299;-50
2021/10/03 03:59:14;;;;;;;;;7.00;7.00;;;;;17.51;66.58;98874.22;4960863;28;45247;-51
2021/10/03 04:01:40;;;;;;;;;9.75;6.50;;;;;17.49;66.91;98875.31;4960681;28;46015;-49
2021/10/03 04:04:05;;;;;;;;;6.25;6.25;;;;;17.48;66.80;98874.47;4960660;28;45220;-53
2021/10/03 04:06:31;;;;;;;;;5.00;5.00;;;;;17.47;66.90;98883.41;4960684;28;45304;-52
2021/10/03 04:08:56;;;;;;;;;6.00;6.00;;;;;17.47;66.39;98866.59;4960707;28;45222;-50
2021/10/03 04:11:22;;;;;;;;;8.50;7.25;;;;;17.49;66.91;98881.47;4960691;28;46287;-53
2021/10/03 04:13:47;;;;;;;;;7.00;7.00;;;;;17.45;66.33;98880.00;4960406;28;45284;-53
2021/10/03 04:16:13;;;;;;;;;7.50;7.00;;;;;17.45;66.34;98885.31;4960945;28;45135;-53
2021/10/03 04:18:38;;;;;;;;;6.75;5.75;;;;;17.45;66.59;98887.97;4971743;28;45297;-53
2021/10/03 04:21:04;;;;;;;;;10.25;8.00;;;;;17.48;66.97;98903.69;4983278;28;45471;-53
2021/10/03 04:23:30;;;;;;;;;8.75;7.75;;;;;17.45;66.77;98898.56;4983242;28;45322;-50
2021/10/03 04:25:55;;;;;;;;;7.75;7.00;;;;;17.47;66.74;98895.81;4983499;28;45341;-51
2021/10/03 04:28:24;;;;;;;;;6.25;6.25;;;;;17.46;66.73;98894.97;4983228;28;45322;-51
2021/10/03 04:30:49;;;;;;;;;11.00;9.50;;;;;17.44;67.14;98896.88;4983225;28;46439;-52
2021/10/03 04:33:15;;;;;;;;;5.25;5.25;;;;;17.44;66.84;98891.56;4982848;28;45201;-51
2021/10/03 04:35:40;;;;;;;;;9.75;7.25;;;;;17.44;67.26;98896.88;4982778;28;45270;-51
2021/10/03 04:38:05;;;;;;;;;8.50;7.50;;;;;17.42;67.02;98893.50;4983152;28;45222;-52
2021/10/03 04:40:31;;;;;;;;;10.25;8.75;;;;;17.41;67.12;98905.06;4983005;28;45615;-51
2021/10/03 04:42:56;;;;;;;;;6.00;6.00;;;;;17.40;67.14;98898.06;4982912;28;45374;-52
2021/10/03 04:45:21;;;;;;;;;8.75;8.50;;;;;17.40;67.42;98890.09;4983137;28;45568;-47
2021/10/03 04:47:47;;;;;;;;;13.25;10.75;;;;;17.39;67.47;98904.31;4982939;28;45492;-51
2021/10/03 04:50:13;;;;;;;;;10.50;9.50;;;;;17.38;67.56;98907.94;4982814;28;45269;-50
2021/10/03 04:52:43;;;;;;;;;10.75;9.50;;;;;17.33;67.82;98899.44;4983062;28;45247;-50
2021/10/03 04:55:10;;;;;;;;;9.50;9.50;;;;;17.32;67.48;98908.38;4983034;28;45335;-49
2021/10/03 04:57:35;;;;;;;;;9.50;9.50;;;;;17.30;67.50;98910.31;4982888;28;45164;-49
2021/10/03 05:00:03;;;;;;;;;10.25;10.25;;;;;17.27;67.60;98910.50;4981571;28;46221;-50
2021/10/03 05:02:28;;;;;;;;;10.25;7.25;;;;;17.30;67.52;98897.03;4982907;28;45315;-46
2021/10/03 05:04:53;;;;;;;;;9.00;9.00;;;;;17.28;67.93;98896.28;4982758;28;45239;-49
2021/10/03 05:07:19;;;;;;;;;9.25;9.25;;;;;17.27;68.00;98887.47;4982831;28;45227;-45
2021/10/03 05:09:44;;;;;;;;;8.00;7.75;;;;;17.27;68.16;98897.22;4982677;28;46049;-48
2021/10/03 05:12:09;;;;;;;;;9.25;8.50;;;;;17.25;68.26;98899.16;4982454;28;45283;-51
2021/10/03 05:14:35;;;;;;;;;9.00;8.75;;;;;17.21;68.24;98886.09;4983026;28;45299;-51
2021/10/03 05:17:01;;;;;;;;;9.00;7.25;;;;;17.22;68.68;98884.31;4982575;28;45322;-51
2021/10/03 05:19:26;;;;;;;;;8.00;8.00;;;;;17.25;68.57;98883.25;4981271;28;47133;-48
2021/10/03 05:21:52;;;;;;;;;8.25;7.25;;;;;17.25;68.53;98878.78;4982029;28;45365;-52
2021/10/03 05:24:17;;;;;;;;;9.25;9.25;;;;;17.25;69.00;98883.25;4981422;28;45328;-52
2021/10/03 05:26:42;;;;;;;;;8.50;7.25;;;;;17.26;68.95;98879.59;4978058;28;45350;-52
2021/10/03 05:29:08;;;;;;;;;8.00;8.00;;;;;17.27;69.15;98881.31;4962500;28;45458;-52
2021/10/03 05:31:34;;;;;;;;;8.25;8.25;;;;;17.28;68.56;98861.78;4962957;28;45346;-49
2021/10/03 05:33:59;;;;;;;;;7.00;7.00;;;;;17.28;68.55;98875.03;4961691;28;45294;-51
2021/10/03 05:36:24;;;;;;;;;9.00;9.00;;;;;17.28;68.85;98873.25;4962552;28;45243;-51
2021/10/03 05:38:50;;;;;;;;;10.50;8.50;;;;;17.29;68.87;98882.88;4961638;28;48042;-50
2021/10/03 05:41:16;;;;;;;;;11.50;9.50;;;;;17.28;68.64;98880.34;4976690;28;45654;-53
2021/10/03 05:43:42;;;;;;;;;8.50;8.50;;;;;17.31;69.01;98880.16;4980860;28;45262;-53
2021/10/03 05:46:08;;;;;;;;;9.25;6.25;;;;;17.29;68.92;98885.53;4982211;28;45544;-54
2021/10/03 05:48:34;;;;;;;;;9.50;8.25;;;;;17.30;69.41;98886.41;4982238;28;45503;-53
2021/10/03 05:51:01;;;;;;;;;8.50;8.50;;;;;17.30;69.32;98905.00;4981733;28;45402;-53
2021/10/03 05:53:27;;;;;;;;;12.00;8.50;;;;;17.29;69.30;98892.66;4980984;28;45467;-54
2021/10/03 05:55:53;;;;;;;;;10.75;10.75;;;;;17.32;69.71;98924.28;4980639;28;46068;-54
2021/10/03 05:58:18;;;;;;;;;8.75;8.75;;;;;17.33;69.92;98955.19;4982047;28;45307;-53
2021/10/03 06:00:43;;;;;;;;;9.00;7.50;;;;;17.35;70.35;98946.16;4996985;28;45741;-53
2021/10/03 06:03:09;;;;;;;;;10.75;10.75;;;;;17.40;69.92;98945.00;4982040;28;45518;-52
2021/10/03 06:05:34;;;;;;;;;9.50;9.50;;;;;17.40;69.95;98977.72;4981635;28;45556;-51
2021/10/03 06:07:59;;;;;;;;;15.25;13.00;;;;;17.41;70.26;98986.50;4981956;28;46095;-53
2021/10/03 06:10:25;;;;;;;;;9.00;9.00;;;;;17.42;70.19;98986.44;4981825;28;45321;-53
2021/10/03 06:12:51;;;;;;;;;9.25;9.25;;;;;17.41;70.46;99002.44;4981689;28;45240;-54
2021/10/03 06:15:17;;;;;;;;;3.00;3.00;;;;;17.43;70.04;99021.78;4981954;28;45316;-55
2021/10/03 06:17:43;;;;;;;;;1.33;1.33;;;;;17.43;70.53;99027.09;4979186;28;45438;-51
2021/10/03 06:20:09;;;;;;;;;0.00;0.00;;;;;17.37;70.20;99000.00;4962253;28;45311;-53
2021/10/03 06:22:35;;;;;;;;;1.00;1.00;;;;;17.36;69.84;99026.69;4962314;28;45376;-53
2021/10/03 06:25:00;;;;;;;;;2.00;1.00;;;;;17.31;69.71;99021.69;4960808;28;45366;-54
2021/10/03 06:27:26;;;;;;;;;1.00;0.00;;;;;17.29;69.69;99034.19;4962119;28;46128;-52
2021/10/03 06:29:53;;;;;;;;;3.00;1.00;;;;;17.25;69.38;99040.69;4962064;28;45476;-53
2021/10/03 06:32:18;;;;;;;;;1.00;0.00;;;;;17.18;69.41;99037.63;4962525;28;45359;-53
2021/10/03 06:34:44;;;;;;;;;0.67;0.67;;;;;17.15;68.96;99031.66;4961472;28;45330;-58
2021/10/03 06:37:09;;;;;;;;;0.33;0.33;;;;;17.12;69.28;99038.03;4961986;28;45695;-58
2021/10/03 06:39:35;;;;;;;;;0.00;0.00;;;;;17.10;69.01;99050.53;4977189;28;45891;-59
2021/10/03 06:42:00;;;;;;;;;0.33;0.33;;;;;17.06;68.59;99064.97;4980287;28;45276;-58
2021/10/03 06:44:26;;;;;;;;;1.33;1.00;;;;;17.05;68.80;99061.47;4980104;28;45646;-59
2021/10/03 06:46:51;;;;;;;;;0.33;0.00;;;;;17.04;68.74;99062.44;4981352;28;46148;-58
2021/10/03 06:49:16;;;;;;;;;1.33;1.33;;;;;17.02;68.64;99052.88;4980027;28;45264;-58
2021/10/03 06:51:43;;;;;;;;;2.00;0.00;;;;;16.99;68.57;99056.59;4981407;28;45343;-59
2021/10/03 06:54:10;;;;;;;;;2.00;2.00;;;;;16.99;68.52;99066.34;4981336;28;45406;-59
2021/10/03 06:56:36;;;;;;;;;0.00;0.00;;;;;16.98;68.63;99054.91;4980145;28;46169;-59
2021/10/03 06:59:02;;;;;;;;;2.00;0.67;;;;;16.98;68.61;99038.09;4981280;28;45552;-59
2021/10/03 07:01:28;;;;;;;;;1.00;1.00;;;;;16.98;68.60;99016.88;4981684;28;45340;-58
2021/10/03 07:03:53;;;;;;;;;0.67;0.33;;;;;16.97;68.41;98980.72;4996166;28;45336;-58
2021/10/03 07:06:19;;;;;;;;;1.00;1.00;;;;;16.96;68.37;98997.59;4980823;28;46027;-58
2021/10/03 07:08:44;;;;;;;;;0.00;0.00;;;;;16.97;68.50;99036.44;4981073;28;45471;-58
2021/10/03 07:11:10;;;;;;;;;1.00;1.00;;;;;16.97;68.52;99061.16;4981226;28;45480;-58
2021/10/03 07:13:35;;;;;;;;;1.00;1.00;;;;;16.97;68.63;99069.09;4980813;28;45209;-59
2021/10/03 07:16:00;;;;;;;;;0.00;0.00;;;;;16.98;68.53;99075.25;4981014;28;45328;-58
2021/10/03 07:18:26;;;;;;;;;0.00;0.00;;;;;16.99;68.26;99079.59;4973000;28;45207;-58
2021/10/03 07:20:51;;;;;;;;;0.00;0.00;;;;;16.97;68.26;99076.22;4961598;28;45212;-58
2021/10/03 07:23:17;;;;;;;;;0.00;0.00;;;;;16.99;68.09;99091.09;4961341;28;45293;-59
2021/10/03 07:25:42;;;;;;;;;0.00;0.00;;;;;17.00;68.39;99097.22;4961349;28;45229;-59
2021/10/03 07:28:08;;;;;;;;;0.00;0.00;;;;;17.00;68.36;99098.06;4959914;28;45378;-59
2021/10/03 07:30:33;;;;;;;;;0.00;0.00;;;;;16.98;68.22;99080.56;4961581;28;45410;-59
2021/10/03 07:32:59;;;;;;;;;0.00;0.00;;;;;17.00;68.48;99081.31;4961261;28;45259;-59
2021/10/03 07:35:24;;;;;;;;;0.00;0.00;;;;;17.00;68.25;99086.63;4960537;28;45292;-59
2021/10/03 07:37:50;;;;;;;;;0.33;0.00;;;;;17.00;68.18;99078.66;4959862;28;45647;-58
2021/10/03 07:40:15;;;;;;;;;0.00;0.00;;;;;17.04;68.07;99082.81;4967237;28;45373;-57
2021/10/03 07:42:42;;;;;;;;;1.00;1.00;;;;;17.05;68.07;99079.19;4979586;28;45552;-53
2021/10/03 07:45:09;;;;;;;;;0.00;0.00;;;;;17.03;68.15;99081.09;4980472;28;45421;-52
2021/10/03 07:47:35;;;;;;;;;2.00;0.00;;;;;17.05;68.09;99084.50;4980312;28;45191;-53
2021/10/03 07:50:00;;;;;;;;;12.25;12.25;;;;;17.08;68.07;99108.19;4980453;28;45231;-52
2021/10/03 07:52:26;;;;;;;;;3.00;3.00;;;;;17.08;68.17;99113.50;4980190;28;45231;-52
2021/10/03 07:54:52;;;;;;;;;0.67;0.67;;;;;17.09;68.17;99115.19;4980473;28;45721;-51
2021/10/03 07:57:18;;;;;;;;;1.67;1.00;;;;;17.09;68.13;99117.84;4980269;28;45243;-53
2021/10/03 07:59:43;;;;;;;;;1.00;1.00;;;;;17.09;68.25;99112.53;4980498;28;45390;-54
2021/10/03 08:02:09;;;;;;;;;1.00;1.00;;;;;17.10;67.92;99118.72;4980228;28;45262;-57
2021/10/03 08:04:34;;;;;;;;;0.67;0.67;;;;;17.07;68.20;99117.09;4980043;28;45419;-53
2021/10/03 08:06:59;;;;;;;;;1.33;1.00;;;;;17.08;68.57;99110.84;4980179;28;45350;-52
2021/10/03 08:09:25;;;;;;;;;1.00;1.00;;;;;17.07;68.03;99122.41;4980589;28;45347;-54
2021/10/03 08:11:50;;;;;;;;;1.00;1.00;;;;;17.06;68.00;99118.88;4980101;28;45572;-54
2021/10/03 08:14:16;;;;;;;;;1.00;1.00;;;;;17.06;68.06;99136.63;4980342;28;45295;-53
2021/10/03 08:16:42;;;;;;;;;1.00;1.00;;;;;17.03;68.23;99128.84;4978838;28;45344;-54
2021/10/03 08:19:07;;;;;;;;;2.00;2.00;;;;;17.01;68.04;99134.28;4965239;28;45337;-52
2021/10/03 08:21:32;;;;;;;;;2.25;1.75;;;;;17.03;68.37;99132.38;4969969;28;45480;-53
2021/10/03 08:23:58;;;;;;;;;1.00;1.00;;;;;17.02;68.12;99145.75;4967278;28;45399;-54
2021/10/03 08:26:23;;;;;;;;;2.00;2.00;;;;;17.03;68.11;99150.09;4979756;28;45427;-54
2021/10/03 08:28:49;;;;;;;;;3.00;3.00;;;;;16.99;68.32;99145.94;4979212;28;45433;-52
2021/10/03 08:31:15;;;;;;;;;2.50;2.50;;;;;17.02;68.37;99161.69;4961737;28;45416;-56
2021/10/03 08:33:40;;;;;;;;;3.00;3.00;;;;;17.03;68.39;99169.53;4959779;28;46271;-54
2021/10/03 08:36:06;;;;;;;;;3.00;2.00;;;;;17.03;68.35;99169.53;4970139;28;45478;-53
2021/10/03 08:38:32;;;;;;;;;3.25;3.25;;;;;17.06;68.29;99173.78;4979829;28;45255;-51
2021/10/03 08:40:57;;;;;;;;;4.00;4.00;;;;;17.04;68.79;99168.59;4979252;28;45246;-52
2021/10/03 08:43:23;;;;;;;;;4.75;4.75;;;;;16.98;68.39;99152.19;4977976;28;46212;-51
2021/10/03 08:45:49;;;;;;;;;4.25;4.00;;;;;17.06;68.48;99171.97;4961073;28;45395;-51
2021/10/03 08:48:16;;;;;;;;;6.00;4.25;;;;;17.05;68.60;99166.75;4958847;28;45354;-53
2021/10/03 08:50:44;;;;;;;;;6.75;5.50;;;;;17.09;68.54;99184.19;4970217;28;45327;-52
2021/10/03 08:53:10;;;;;;;;;6.00;5.25;;;;;17.04;68.99;99181.84;4993992;28;46150;-54
2021/10/03 08:55:36;;;;;;;;;3.75;3.00;;;;;17.09;67.88;99199.25;4966440;28;45243;-52
2021/10/03 08:58:01;;;;;;;;;3.75;3.75;;;;;17.14;68.34;99207.78;4977788;28;45464;-50
2021/10/03 09:00:27;;;;;;;;;3.00;3.00;;;;;17.12;69.33;99218.50;4973061;28;45338;-52
2021/10/03 09:03:07;;;;;;;;;5.50;4.00;;;;;17.18;69.39;99227.84;4968855;28;47002;-53
2021/10/03 09:05:36;;;;;;;;;3.00;3.00;;;;;17.18;69.97;99225.19;4976193;28;45486;-55
2021/10/03 09:08:17;;;;;;;;;3.00;2.00;;;;;17.18;70.52;99210.13;4963084;28;45223;-54
2021/10/03 09:10:58;;;;;;;;;2.75;2.00;;;;;17.24;69.79;99226.59;4981263;28;45413;-53
2021/10/03 09:13:43;;;;;;;;;2.25;2.00;;;;;17.24;69.35;99231.91;4981326;28;46129;-54
2021/10/03 09:16:43;;;;;;;;;2.75;2.00;;;;;17.30;69.86;99231.50;4982151;28;45375;-55
2021/10/03 09:19:13;;;;;;;;;1.00;0.75;;;;;17.32;69.74;99241.06;4889824;29;45474;-55
2021/10/03 09:21:42;;;;;;;;;2.75;2.75;;;;;17.30;69.30;99229.69;4955664;28;45241;-57
2021/10/03 09:24:09;;;;;;;;;1.50;1.50;;;;;17.32;69.06;99235.75;4982168;28;46605;-57
2021/10/03 09:26:36;;;;;;;;;2.00;2.00;;;;;17.34;69.05;99248.94;4982293;28;45293;-53
2021/10/03 09:29:20;;;;;;;;;1.25;1.25;;;;;17.38;68.41;99243.31;4968703;28;45248;-51
2021/10/03 09:32:06;;;;;;;;;1.75;1.75;;;;;17.40;68.62;99253.00;4981016;28;45420;-50
2021/10/03 09:34:32;;;;;;;;;1.00;1.00;;;;;17.40;69.06;99253.84;4962662;28;46146;-51
2021/10/03 09:36:58;;;;;;;;;2.00;2.00;;;;;17.43;69.09;99274.88;4962452;28;45334;-50
2021/10/03 09:39:23;;;;;;;;;2.00;2.00;;;;;17.34;69.54;99271.00;4975757;28;45286;-52
2021/10/03 09:41:49;;;;;;;;;2.00;2.00;;;;;17.43;69.47;99288.13;4974272;28;45411;-53
2021/10/03 09:44:16;;;;;;;;;2.00;1.00;;;;;17.47;68.94;99279.03;4962697;28;45365;-52
2021/10/03 09:46:45;;;;;;;;;1.25;1.25;;;;;17.49;69.83;99289.56;4980686;28;45377;-52
2021/10/03 09:49:12;;;;;;;;;2.50;1.50;;;;;17.49;69.37;99279.78;4969528;28;45373;-52
2021/10/03 09:51:39;;;;;;;;;1.00;1.00;;;;;17.47;68.62;99288.78;4968035;28;45484;-49
2021/10/03 09:54:07;;;;;;;;;3.33;2.00;;;;;17.45;69.15;99299.53;4978273;28;47403;-50
2021/10/03 09:56:33;;;;;;;;;1.00;1.00;;;;;17.48;68.55;99311.75;4966505;28;45503;-52
2021/10/03 09:59:03;;;;;;;;;1.00;0.00;;;;;17.42;71.04;99352.84;4974330;28;45385;-52
2021/10/03 10:01:44;;;;;;;;;0.33;0.33;;;;;17.45;70.48;99415.53;4962293;28;45406;-52
2021/10/03 10:04:10;;;;;;;;;0.00;0.00;;;;;17.38;69.89;99434.50;4977001;28;48131;-51
2021/10/03 10:06:36;;;;;;;;;0.00;0.00;;;;;17.28;69.24;99437.81;4964394;28;45402;-56
2021/10/03 10:09:08;;;;;;;;;0.00;0.00;;;;;17.24;68.60;99465.50;4962682;28;45418;-51
2021/10/03 10:11:48;;;;;;;;;0.00;0.00;;;;;17.16;68.40;99482.75;4961791;28;45589;-49
2021/10/03 10:14:15;;;;;;;;;0.00;0.00;;;;;17.05;67.90;99506.44;4970834;28;46348;-50
2021/10/03 10:16:47;;;;;;;;;0.00;0.00;;;;;16.94;67.35;99538.09;4966883;28;45286;-50
2021/10/03 10:19:33;;;;;;;;;0.00;0.00;;;;;16.80;67.27;99536.22;4981493;28;45226;-50
2021/10/03 10:22:14;;;;;;;;;0.00;0.00;;;;;16.67;67.00;99567.94;4972187;28;45449;-49
2021/10/03 10:25:05;;;;;;;;;0.00;0.00;;;;;16.53;66.99;99560.78;4961781;28;47169;-54
2021/10/03 10:27:34;;;;;;;;;0.33;0.00;;;;;16.40;67.00;99587.97;4977035;28;45255;-51
2021/10/03 10:30:05;;;;;;;;;0.00;0.00;;;;;16.30;66.83;99586.81;4981872;28;45345;-51
2021/10/03 10:32:33;;;;;;;;;0.00;0.00;;;;;16.20;66.41;99599.72;4967887;28;45469;-53
2021/10/03 10:35:08;;;;;;;;;0.33;0.33;;;;;16.08;66.06;99601.22;4969078;28;45538;-53
2021/10/03 10:37:48;;;;;;;;;0.67;0.00;;;;;15.99;66.12;99608.84;4969904;28;45670;-54
2021/10/03 10:40:26;;;;;;;;;0.00;0.00;;;;;15.88;66.11;99620.88;4970957;28;45338;-55
2021/10/03 10:43:03;;;;;;;;;0.00;0.00;;;;;15.80;66.66;99660.13;4968056;28;45527;-53
2021/10/03 10:45:36;;;;;;;;;0.00;0.00;;;;;15.73;66.03;99656.94;4969034;28;46422;-54
2021/10/03 10:48:10;;;;;;;;;0.00;0.00;;;;;15.65;66.00;99666.25;4971500;28;45376;-54
2021/10/03 10:50:54;;;;;;;;;0.00;0.00;;;;;15.58;65.97;99695.69;4970080;28;45261;-54
2021/10/03 10:53:31;;;;;;;;;0.00;0.00;;;;;15.49;65.98;99711.19;4969987;28;45666;-54
2021/10/03 10:56:00;;;;;;;;;0.00;0.00;;;;;15.41;66.19;99716.88;4970293;28;45489;-53
2021/10/03 10:58:25;;;;;;;;;0.00;0.00;;;;;15.33;65.67;99732.28;4969181;28;45533;-53
2021/10/03 11:00:58;;;;;;;;;0.25;0.25;;;;;15.27;65.59;99755.47;4968949;28;45398;-52
2021/10/03 11:03:42;;;;;;;;;0.00;0.00;;;;;15.21;65.51;99754.94;4968955;28;45727;-53
2021/10/03 11:06:22;;;;;;;;;0.00;0.00;;;;;15.16;65.61;99752.50;4970345;28;45523;-54
2021/10/03 11:09:10;;;;;;;;;0.00;0.00;;;;;15.08;65.80;99747.59;4969859;28;45266;-54
2021/10/03 11:11:56;;;;;;;;;1.00;1.00;;;;;15.04;65.55;99735.44;4970111;28;45346;-54
2021/10/03 11:14:24;;;;;;;;;0.00;0.00;;;;;15.03;65.83;99741.66;4979328;28;45404;-53
2021/10/03 11:16:52;;;;;;;;;0.25;0.25;;;;;15.04;65.55;99755.72;4980469;28;46126;-52
2021/10/03 11:19:25;;;;;;;;;1.00;1.00;;;;;15.01;65.59;99761.19;4980481;28;45490;-54
2021/10/03 11:22:02;;;;;;;;;12.75;9.75;;;;;15.06;65.44;99769.75;4971847;28;45396;-54
2021/10/03 11:24:34;;;;;;;;;6.00;6.00;;;;;15.09;65.58;99765.19;4970629;28;45318;-53
2021/10/03 11:27:02;;;;;;;;;5.25;4.50;;;;;15.16;65.68;99778.97;4969093;28;45372;-51
2021/10/03 11:29:43;;;;;;;;;3.00;3.00;;;;;15.24;66.02;99797.09;4966642;28;45311;-54
2021/10/03 11:32:13;;;;;;;;;7.50;5.75;;;;;15.31;65.37;99824.13;4969732;28;45353;-54